Time;durP1;ratioP1;P1;durP2;ratioP2;P2;SDS_P1;SDS_P2;PMS_P1;PMS_P2;Temp;Humidity;BMP_temperature;BMP_pressure;BME280_temperature;BME280_humidity;BME280_pressure;Samples;Min_cycle;Max_cycle;Signal;HPM_P1;HPM_P2
2023/10/13 00:01:59;;;;;;;28.95;14.50;;;14.50;99.90;;;;;;5003326;28;20065;-56
2023/10/13 00:04:28;;;;;;;24.40;14.38;;;14.50;99.90;;;;;;5003554;28;20080;-56
2023/10/13 00:06:58;;;;;;;32.08;14.63;;;14.60;99.90;;;;;;5002939;28;20025;-56
2023/10/13 00:09:25;;;;;;;25.25;13.77;;;14.50;99.90;;;;;;4995104;28;20030;-56
2023/10/13 00:11:55;;;;;;;26.40;14.15;;;14.60;99.90;;;;;;5002380;28;20561;-57
2023/10/13 00:14:21;;;;;;;24.30;15.07;;;14.50;99.90;;;;;;5002058;28;20125;-56
2023/10/13 00:17:03;;;;;;;23.98;16.05;;;14.60;99.90;;;;;;5003075;28;20092;-56
2023/10/13 00:19:46;;;;;;;28.00;16.05;;;14.60;99.90;;;;;;5000838;28;20026;-56
2023/10/13 00:22:15;;;;;;;22.25;14.63;;;14.60;99.90;;;;;;4988952;28;20021;-57
2023/10/13 00:24:42;;;;;;;31.60;15.07;;;14.60;99.90;;;;;;5009545;28;20014;-57
2023/10/13 00:27:36;;;;;;;28.85;15.63;;;14.60;99.90;;;;;;5009924;28;20356;-57
2023/10/13 00:30:22;;;;;;;21.90;14.90;;;14.60;99.90;;;;;;5010194;28;20026;-57
2023/10/13 00:32:56;;;;;;;29.73;15.65;;;14.70;99.90;;;;;;5009839;28;20029;-56
2023/10/13 00:35:37;;;;;;;24.23;14.15;;;14.70;99.90;;;;;;5007794;28;20061;-57
2023/10/13 00:38:16;;;;;;;25.08;16.02;;;14.80;99.90;;;;;;5009614;28;20066;-57
2023/10/13 00:40:52;;;;;;;27.97;15.93;;;14.80;99.90;;;;;;5009777;28;20553;-58
2023/10/13 00:45:58;;;;;;;32.25;19.02;;;14.80;99.90;;;;;;5004563;28;20022;-56
2023/10/13 00:51:18;;;;;;;33.67;20.83;;;14.80;99.90;;;;;;5007136;28;20028;-57
2023/10/13 00:53:44;;;;;;;29.20;18.42;;;14.80;99.90;;;;;;5014675;28;20089;-57
2023/10/13 00:56:21;;;;;;;36.85;18.83;;;14.80;99.90;;;;;;5009349;28;20321;-57
2023/10/13 00:58:51;;;;;;;35.75;18.95;;;14.80;99.90;;;;;;5009137;28;20018;-57
2023/10/13 01:01:22;;;;;;;37.40;20.98;;;14.80;99.90;;;;;;5009602;28;20045;-57
2023/10/13 01:03:55;;;;;;;36.03;20.63;;;14.80;99.90;;;;;;5009353;28;20053;-57
2023/10/13 01:06:26;;;;;;;35.05;20.40;;;14.80;99.90;;;;;;5009566;28;20584;-57
2023/10/13 01:09:00;;;;;;;34.95;20.20;;;14.80;99.90;;;;;;5009569;28;20028;-57
2023/10/13 01:11:29;;;;;;;30.23;19.33;;;14.90;99.90;;;;;;5009710;28;20491;-57
2023/10/13 01:13:56;;;;;;;36.08;19.42;;;14.80;99.90;;;;;;5009434;28;20022;-57
2023/10/13 01:16:26;;;;;;;37.15;20.17;;;14.80;99.90;;;;;;5009340;28;20576;-57
2023/10/13 01:18:52;;;;;;;40.40;20.85;;;14.80;99.90;;;;;;5009191;28;20125;-57
2023/10/13 01:21:20;;;;;;;28.80;18.42;;;14.90;99.90;;;;;;5009439;28;20022;-57
2023/10/13 01:23:47;;;;;;;34.30;20.15;;;14.90;99.90;;;;;;5009236;28;20471;-57
2023/10/13 01:26:21;;;;;;;31.23;18.92;;;14.90;99.90;;;;;;5009259;28;20050;-57
2023/10/13 01:28:48;;;;;;;31.48;18.40;;;14.90;99.90;;;;;;5009587;28;20080;-57
2023/10/13 01:31:24;;;;;;;32.17;17.67;;;15.00;99.90;;;;;;5009134;28;20014;-57
2023/10/13 01:33:54;;;;;;;31.00;16.58;;;15.00;99.90;;;;;;5007926;28;20030;-57
2023/10/13 01:36:20;;;;;;;34.47;18.35;;;15.00;99.90;;;;;;5001876;28;20510;-57
2023/10/13 01:38:46;;;;;;;34.10;16.50;;;15.00;99.90;;;;;;5007970;28;20475;-57
2023/10/13 01:41:13;;;;;;;29.00;16.33;;;15.00;99.90;;;;;;5009637;28;20030;-57
2023/10/13 01:43:39;;;;;;;19.35;13.75;;;15.00;99.90;;;;;;5009002;28;20513;-57
2023/10/13 01:46:05;;;;;;;27.90;13.48;;;15.10;99.90;;;;;;5008726;28;20030;-56
2023/10/13 01:48:32;;;;;;;25.10;15.25;;;15.10;99.90;;;;;;5009342;28;20052;-56
2023/10/13 01:51:00;;;;;;;23.45;14.10;;;15.10;99.90;;;;;;5007821;28;20026;-57
2023/10/13 01:53:28;;;;;;;21.35;14.27;;;15.10;99.90;;;;;;5008920;28;20029;-57
2023/10/13 01:55:57;;;;;;;19.70;12.77;;;15.10;99.90;;;;;;5008574;28;20026;-56
2023/10/13 01:58:23;;;;;;;24.10;13.50;;;15.10;99.90;;;;;;5000624;28;20030;-56
2023/10/13 02:00:49;;;;;;;21.98;13.25;;;15.10;99.90;;;;;;4989478;28;20061;-56
2023/10/13 02:03:16;;;;;;;20.38;12.07;;;15.10;99.90;;;;;;4989164;28;20073;-56
2023/10/13 02:05:49;;;;;;;20.73;12.18;;;15.20;99.90;;;;;;4989066;28;20620;-56
2023/10/13 02:08:24;;;;;;;18.45;12.13;;;15.20;99.90;;;;;;4989183;28;20026;-56
2023/10/13 02:10:51;;;;;;;20.23;12.18;;;15.20;99.90;;;;;;4974509;28;20331;-56
2023/10/13 02:13:17;;;;;;;19.42;11.57;;;15.20;99.90;;;;;;4993237;28;20078;-56
2023/10/13 02:15:48;;;;;;;20.38;11.77;;;15.20;99.90;;;;;;4992625;28;20110;-56
2023/10/13 02:18:26;;;;;;;17.90;12.95;;;15.20;99.90;;;;;;4992584;28;20025;-56
2023/10/13 02:21:04;;;;;;;18.05;11.82;;;15.20;99.90;;;;;;4992817;28;20105;-56
2023/10/13 02:23:30;;;;;;;16.73;11.57;;;15.20;99.90;;;;;;4975010;28;20029;-56
2023/10/13 02:28:40;;;;;;;18.27;12.35;;;15.30;99.90;;;;;;4992799;28;20328;-56
2023/10/13 02:31:07;;;;;;;22.40;12.40;;;15.30;99.90;;;;;;4992576;28;20035;-56
2023/10/13 02:33:33;;;;;;;17.70;10.93;;;15.30;99.90;;;;;;4974886;28;20034;-56
2023/10/13 02:36:05;;;;;;;16.95;10.65;;;15.30;99.90;;;;;;4991779;28;20372;-56
2023/10/13 02:38:42;;;;;;;21.30;11.90;;;15.30;99.90;;;;;;4992464;28;20025;-56
2023/10/13 02:41:28;;;;;;;17.85;10.55;;;15.30;99.90;;;;;;4992282;28;20034;-57
2023/10/13 02:43:55;;;;;;;17.35;10.65;;;15.30;99.90;;;;;;4974364;28;20076;-56
2023/10/13 02:46:21;;;;;;;16.73;11.18;;;15.30;99.90;;;;;;4991901;28;20518;-56
2023/10/13 02:48:52;;;;;;;17.83;11.02;;;15.30;99.90;;;;;;4992360;28;20391;-56
2023/10/13 02:51:31;;;;;;;21.33;11.60;;;15.30;99.90;;;;;;4992138;28;20113;-56
2023/10/13 02:54:02;;;;;;;16.20;9.85;;;15.30;99.90;;;;;;4991965;28;20569;-56
2023/10/13 02:56:28;;;;;;;14.20;10.13;;;15.40;99.90;;;;;;4991960;28;20023;-56
2023/10/13 02:58:56;;;;;;;19.15;9.90;;;15.30;99.90;;;;;;4991881;28;20038;-56
2023/10/13 03:01:27;;;;;;;17.30;10.52;;;15.30;99.90;;;;;;4992168;28;20019;-56
2023/10/13 03:03:55;;;;;;;21.77;10.75;;;15.30;99.90;;;;;;4991722;28;20507;-56
2023/10/13 03:06:24;;;;;;;16.77;10.13;;;15.30;99.90;;;;;;4991756;28;20022;-56
2023/10/13 03:08:52;;;;;;;16.33;10.52;;;15.30;99.90;;;;;;4974563;28;20029;-56
2023/10/13 03:11:21;;;;;;;14.63;9.50;;;15.30;99.90;;;;;;4991984;28;20097;-56
2023/10/13 03:13:50;;;;;;;17.40;9.40;;;15.40;99.90;;;;;;4991862;28;20161;-56
2023/10/13 03:16:16;;;;;;;18.13;9.88;;;15.40;99.90;;;;;;4991620;28;20019;-56
2023/10/13 03:18:56;;;;;;;18.08;9.00;;;15.40;99.90;;;;;;4991883;28;20057;-57
2023/10/13 03:21:31;;;;;;;17.58;9.18;;;15.40;99.90;;;;;;4990787;28;20029;-56
2023/10/13 03:24:07;;;;;;;13.80;9.50;;;15.30;99.90;;;;;;4991209;28;20046;-56
2023/10/13 03:26:34;;;;;;;17.17;9.95;;;15.30;99.90;;;;;;4974121;28;20023;-56
2023/10/13 03:29:03;;;;;;;13.40;9.45;;;15.30;99.90;;;;;;4991971;28;20027;-58
2023/10/13 03:31:30;;;;;;;20.33;10.07;;;15.30;99.90;;;;;;4974178;28;20022;-57
2023/10/13 03:33:59;;;;;;;13.85;9.48;;;15.30;99.90;;;;;;4991410;28;20462;-56
2023/10/13 03:39:28;;;;;;;13.13;9.02;;;15.20;99.90;;;;;;4968485;28;20045;-57
2023/10/13 03:41:54;;;;;;;12.35;8.63;;;15.20;99.90;;;;;;4991416;28;20022;-57
2023/10/13 03:44:20;;;;;;;12.10;9.35;;;15.20;99.90;;;;;;4990994;28;20365;-57
2023/10/13 03:46:48;;;;;;;18.83;9.70;;;15.20;99.90;;;;;;4991148;28;20026;-58
2023/10/13 03:49:21;;;;;;;16.25;9.57;;;15.20;99.90;;;;;;4991141;28;20430;-58
2023/10/13 03:51:50;;;;;;;13.75;9.43;;;15.20;99.90;;;;;;4991252;28;20109;-57
2023/10/13 03:54:16;;;;;;;13.88;8.00;;;15.20;99.90;;;;;;4990550;28;20026;-58
2023/10/13 03:56:44;;;;;;;15.48;8.95;;;15.20;99.90;;;;;;4990978;28;20438;-56
2023/10/13 04:04:11;;;;;;;11.90;8.63;;;15.20;99.90;;;;;;4990447;28;20030;-56
2023/10/13 04:17:26;;;;;;;14.52;8.70;;;15.30;99.90;;;;;;4990470;28;21350;-56
2023/10/13 04:23:17;;;;;;;14.93;8.10;;;15.40;99.90;;;;;;4990933;28;20000;-56
2023/10/13 04:33:43;;;;;;;11.02;8.48;;;15.40;99.90;;;;;;4989660;28;20034;-56
2023/10/13 04:39:09;;;;;;;12.15;8.57;;;15.50;99.90;;;;;;4990340;28;20085;-56
2023/10/13 04:57:32;;;;;;;12.48;8.77;;;15.60;99.90;;;;;;4989898;28;20364;-57
2023/10/13 06:29:35;;;;;;;15.32;8.48;;;16.40;99.90;;;;;;4992743;28;20081;-57
2023/10/13 06:32:01;;;;;;;13.70;8.18;;;16.40;99.90;;;;;;4992588;28;20158;-56
2023/10/13 06:34:37;;;;;;;12.13;7.65;;;16.50;99.90;;;;;;4992666;28;20030;-57
2023/10/13 06:37:22;;;;;;;10.90;8.00;;;16.40;99.90;;;;;;4985794;28;20015;-56
2023/10/13 06:39:48;;;;;;;9.30;6.97;;;16.40;99.90;;;;;;4974725;28;20113;-57
2023/10/13 06:42:14;;;;;;;11.82;7.70;;;16.50;99.90;;;;;;4991800;28;20025;-56
2023/10/13 06:44:45;;;;;;;15.70;8.77;;;16.50;99.90;;;;;;4989724;28;20022;-56
2023/10/13 06:47:11;;;;;;;12.13;6.65;;;16.50;99.90;;;;;;4980077;28;20030;-56
2023/10/13 06:49:39;;;;;;;13.35;7.47;;;16.60;99.90;;;;;;4988920;28;20113;-56
2023/10/13 06:52:06;;;;;;;15.45;8.35;;;16.60;99.90;;;;;;4980749;28;20033;-56
2023/10/13 06:54:39;;;;;;;12.88;7.63;;;16.60;99.90;;;;;;4988172;28;20493;-56
2023/10/13 06:57:09;;;;;;;11.57;7.93;;;16.60;99.90;;;;;;4988622;28;20418;-56
2023/10/13 06:59:36;;;;;;;11.20;7.50;;;16.70;99.90;;;;;;4987562;28;20027;-56
2023/10/13 07:02:06;;;;;;;13.23;7.70;;;16.60;99.90;;;;;;4989029;28;20422;-56
2023/10/13 07:04:32;;;;;;;13.10;7.93;;;16.60;99.90;;;;;;4989570;28;20027;-56
2023/10/13 07:07:00;;;;;;;12.90;8.88;;;16.50;99.90;;;;;;4992889;28;20744;-56
2023/10/13 07:12:06;;;;;;;21.45;9.40;;;16.50;99.90;;;;;;4988975;28;20025;-56
2023/10/13 07:14:36;;;;;;;15.48;8.25;;;16.50;99.90;;;;;;4998301;28;20058;-57
2023/10/13 07:17:04;;;;;;;14.95;9.55;;;16.40;99.90;;;;;;4989452;28;20022;-57
2023/10/13 07:19:31;;;;;;;14.98;9.90;;;16.40;99.90;;;;;;4988067;28;20077;-56
2023/10/13 07:22:03;;;;;;;14.30;9.82;;;16.40;99.90;;;;;;4974289;28;20014;-56
2023/10/13 07:24:32;;;;;;;16.35;10.32;;;16.30;99.90;;;;;;4987639;28;20076;-56
2023/10/13 07:27:07;;;;;;;14.68;10.30;;;16.30;99.90;;;;;;4991817;28;20112;-56
2023/10/13 07:29:35;;;;;;;20.75;11.13;;;16.30;99.90;;;;;;4993309;28;20030;-56
2023/10/13 07:32:12;;;;;;;14.13;10.60;;;16.30;99.90;;;;;;4995485;28;20040;-56
2023/10/13 07:34:39;;;;;;;16.45;9.77;;;16.30;99.90;;;;;;4986306;28;20144;-57
2023/10/13 07:37:08;;;;;;;17.92;10.68;;;16.20;99.90;;;;;;4984426;28;20034;-57
2023/10/13 07:39:33;;;;;;;23.33;10.68;;;16.30;99.90;;;;;;4985919;28;20382;-57
2023/10/13 07:42:03;;;;;;;19.13;11.40;;;16.20;99.90;;;;;;4975794;28;20101;-57
2023/10/13 07:44:33;;;;;;;17.90;11.65;;;16.20;99.90;;;;;;4991004;28;20034;-57
2023/10/13 07:47:03;;;;;;;20.08;12.13;;;16.20;99.90;;;;;;4991436;28;20034;-57
2023/10/13 07:49:30;;;;;;;17.70;11.38;;;16.20;99.90;;;;;;4991561;28;20018;-57
2023/10/13 07:52:18;;;;;;;18.95;11.30;;;16.30;99.90;;;;;;4991034;28;20073;-57
2023/10/13 07:54:55;;;;;;;19.40;11.02;;;16.40;99.90;;;;;;4990754;28;20419;-57
2023/10/13 07:57:29;;;;;;;19.08;11.82;;;16.40;99.90;;;;;;4990923;28;20117;-57
2023/10/13 08:00:11;;;;;;;18.33;10.95;;;16.50;99.90;;;;;;4990956;28;20108;-57
2023/10/13 08:02:49;;;;;;;16.83;10.65;;;16.50;99.90;;;;;;4991009;28;20058;-58
2023/10/13 08:05:29;;;;;;;18.95;11.18;;;16.50;99.90;;;;;;4973162;28;20014;-57
2023/10/13 08:07:55;;;;;;;15.25;10.30;;;16.60;99.90;;;;;;4990740;28;20019;-59
2023/10/13 08:10:29;;;;;;;14.82;10.63;;;16.60;99.90;;;;;;4990761;28;20037;-58
2023/10/13 08:12:57;;;;;;;20.30;12.55;;;16.60;99.90;;;;;;4990563;28;20026;-58
2023/10/13 08:15:31;;;;;;;14.30;11.35;;;16.60;99.90;;;;;;4990383;28;20114;-58
2023/10/13 08:17:59;;;;;;;17.20;11.40;;;16.60;99.90;;;;;;4990869;28;20446;-58
2023/10/13 08:20:30;;;;;;;14.23;10.60;;;16.60;99.90;;;;;;4973115;28;20026;-58
2023/10/13 08:23:13;;;;;;;15.27;9.40;;;16.60;99.90;;;;;;4990169;28;20146;-59
2023/10/13 08:31:22;;;;;;;19.75;11.15;;;16.70;99.90;;;;;;4990437;28;20030;-58
2023/10/13 08:33:50;;;;;;;14.65;10.23;;;16.70;99.90;;;;;;4990187;28;20028;-59
2023/10/13 08:36:28;;;;;;;18.70;11.77;;;16.70;99.90;;;;;;4988807;28;20121;-58
2023/10/13 08:38:55;;;;;;;19.73;10.75;;;16.70;99.90;;;;;;4989871;28;20057;-58
2023/10/13 08:43:51;;;;;;;15.27;11.32;;;16.70;99.90;;;;;;4988758;28;20464;-58
2023/10/13 08:46:38;;;;;;;21.13;12.13;;;16.70;99.90;;;;;;4990001;28;20312;-58
2023/10/13 08:49:17;;;;;;;24.83;11.57;;;16.80;99.90;;;;;;4990092;28;20110;-58
2023/10/13 08:51:43;;;;;;;20.77;12.25;;;16.80;99.90;;;;;;4990109;28;20460;-58
2023/10/13 08:54:19;;;;;;;21.48;11.35;;;16.80;99.90;;;;;;4972254;28;20545;-58
2023/10/13 08:56:56;;;;;;;21.80;10.75;;;16.90;99.90;;;;;;4990144;28;20101;-63
2023/10/13 08:59:23;;;;;;;16.55;10.30;;;16.90;99.90;;;;;;4985885;28;20093;-65
2023/10/13 09:01:59;;;;;;;18.23;9.98;;;17.00;99.90;;;;;;4990009;28;20018;-64
2023/10/13 09:04:33;;;;;;;18.60;9.90;;;17.00;99.90;;;;;;4972378;28;20468;-63
2023/10/13 09:12:25;;;;;;;14.70;8.07;;;17.10;99.90;;;;;;4990296;28;20023;-64
2023/10/13 09:14:58;;;;;;;14.52;8.95;;;17.10;99.90;;;;;;4990090;28;20030;-64
2023/10/13 09:17:35;;;;;;;16.90;8.13;;;17.20;99.90;;;;;;4989972;28;20387;-64
2023/10/13 09:25:53;;;;;;;11.32;6.95;;;17.30;99.90;;;;;;4993491;28;20030;-63
2023/10/13 09:28:25;;;;;;;12.30;6.90;;;17.40;99.90;;;;;;4976379;28;20041;-63
2023/10/13 09:30:56;;;;;;;12.82;7.35;;;17.40;99.90;;;;;;4993834;28;20556;-63
2023/10/13 09:33:50;;;;;;;12.25;7.20;;;17.40;99.90;;;;;;4993564;28;20036;-63
2023/10/13 09:36:17;;;;;;;10.93;7.35;;;17.40;99.90;;;;;;4975280;28;20034;-64
2023/10/13 09:39:10;;;;;;;13.38;7.90;;;17.40;99.90;;;;;;4992819;28;20034;-63
2023/10/13 09:41:32;;;;;;;9.95;6.50;;;17.50;99.90;;;;;;4993406;28;20030;-64
2023/10/13 09:43:57;;;;;;;9.73;7.28;;;17.60;99.90;;;;;;4993216;28;20025;-63
2023/10/13 09:46:28;;;;;;;9.98;6.70;;;17.60;99.90;;;;;;4993531;28;20022;-63
2023/10/13 09:49:22;;;;;;;16.05;7.63;;;17.70;99.90;;;;;;4993801;28;20038;-63
2023/10/13 09:51:48;;;;;;;11.50;6.15;;;17.70;99.90;;;;;;4976242;28;20062;-63
2023/10/13 09:54:26;;;;;;;12.68;6.70;;;17.70;99.90;;;;;;4993466;28;20041;-64
2023/10/13 09:57:02;;;;;;;8.32;6.18;;;17.70;99.90;;;;;;4976313;28;20073;-64
2023/10/13 09:59:43;;;;;;;10.48;6.25;;;17.80;99.90;;;;;;4993386;28;20026;-63
2023/10/13 10:02:09;;;;;;;8.98;5.68;;;17.90;99.90;;;;;;4974574;28;20244;-62
2023/10/13 10:04:50;;;;;;;11.65;6.18;;;18.00;99.90;;;;;;4993067;28;20096;-63
2023/10/13 10:07:32;;;;;;;12.18;6.35;;;18.00;99.90;;;;;;4993541;28;20030;-62
2023/10/13 10:09:59;;;;;;;9.82;6.10;;;18.00;99.90;;;;;;4992985;28;20468;-63
2023/10/13 10:12:41;;;;;;;7.85;5.88;;;18.00;99.90;;;;;;4992814;28;20491;-64
2023/10/13 10:15:33;;;;;;;10.65;6.90;;;18.10;99.90;;;;;;4992763;28;20053;-64
2023/10/13 10:18:00;;;;;;;9.90;6.28;;;18.10;99.90;;;;;;4988618;28;20023;-63
2023/10/13 10:20:42;;;;;;;15.77;6.43;;;18.20;99.90;;;;;;4992732;28;20550;-63
2023/10/13 10:23:14;;;;;;;11.23;6.07;;;18.20;99.90;;;;;;4975306;28;20027;-63
2023/10/13 10:25:44;;;;;;;8.85;6.28;;;18.30;99.90;;;;;;4993015;28;20022;-63
2023/10/13 10:28:10;;;;;;;12.25;6.50;;;18.40;99.90;;;;;;4992987;28;20415;-63
2023/10/13 10:30:41;;;;;;;12.95;6.53;;;18.50;99.90;;;;;;4974889;28;20077;-63
2023/10/13 10:33:21;;;;;;;14.50;6.75;;;18.80;99.90;;;;;;4975093;28;20026;-63
2023/10/13 10:35:47;;;;;;;11.80;6.47;;;18.90;99.90;;;;;;4990822;28;20060;-63
2023/10/13 10:38:24;;;;;;;11.80;6.68;;;19.00;99.90;;;;;;4990341;28;20449;-64
2023/10/13 10:40:58;;;;;;;11.52;6.47;;;19.10;99.90;;;;;;4991938;28;20080;-63
2023/10/13 10:43:42;;;;;;;18.95;6.15;;;19.10;99.90;;;;;;4983609;28;20534;-62
2023/10/13 10:46:28;;;;;;;11.65;6.20;;;19.20;99.90;;;;;;4992131;28;20030;-63
2023/10/13 10:49:00;;;;;;;13.25;5.85;;;19.50;99.90;;;;;;4974743;28;20029;-63
2023/10/13 10:51:31;;;;;;;10.82;5.70;;;19.70;99.90;;;;;;4992439;28;20027;-64
2023/10/13 10:53:58;;;;;;;15.15;6.10;;;19.80;99.90;;;;;;4992023;28;20030;-64
2023/10/13 10:56:25;;;;;;;14.50;6.10;;;19.80;99.90;;;;;;4991997;28;20065;-64
2023/10/13 10:58:56;;;;;;;14.30;6.38;;;19.90;99.90;;;;;;4992015;28;20450;-64
2023/10/13 11:01:33;;;;;;;17.95;6.70;;;20.00;99.90;;;;;;4974646;28;20502;-63
2023/10/13 11:04:18;;;;;;;12.88;6.25;;;20.10;99.90;;;;;;4991386;28;20057;-63
2023/10/13 11:06:55;;;;;;;13.63;6.35;;;20.30;99.90;;;;;;4990817;28;20033;-64
2023/10/13 11:09:32;;;;;;;14.57;6.22;;;20.40;99.90;;;;;;4991709;28;20080;-64
2023/10/13 11:12:24;;;;;;;16.15;6.65;;;20.50;99.90;;;;;;4986196;28;20069;-64
2023/10/13 11:15:22;;;;;;;11.93;6.50;;;20.60;99.90;;;;;;4983859;28;20341;-64
2023/10/13 11:17:54;;;;;;;13.73;5.97;;;20.70;99.90;;;;;;4989046;28;20030;-64
2023/10/13 11:20:33;;;;;;;13.95;6.03;;;20.80;99.90;;;;;;4991247;28;20085;-64
2023/10/13 11:23:00;;;;;;;10.68;5.63;;;20.80;99.90;;;;;;4991613;28;20018;-64
2023/10/13 11:25:29;;;;;;;15.60;6.43;;;21.10;99.90;;;;;;4991595;28;20029;-64
2023/10/13 11:27:56;;;;;;;15.60;5.72;;;21.20;99.90;;;;;;4991741;28;20019;-64
2023/10/13 11:30:25;;;;;;;16.52;6.15;;;21.50;99.90;;;;;;4991549;28;20490;-64
2023/10/13 11:33:08;;;;;;;14.60;5.50;;;21.70;99.90;;;;;;4991412;28;20026;-64
2023/10/13 11:35:49;;;;;;;14.45;5.40;;;22.10;99.90;;;;;;4991369;28;20039;-64
2023/10/13 11:38:24;;;;;;;13.45;5.30;;;22.70;99.90;;;;;;4991210;28;20034;-65
2023/10/13 11:43:45;;;;;;;14.10;6.30;;;23.00;99.90;;;;;;4990843;28;20030;-65
2023/10/13 11:48:41;;;;;;;15.93;5.30;;;23.00;99.90;;;;;;4991334;28;19952;-65
2023/10/13 11:51:08;;;;;;;13.60;6.47;;;22.80;99.90;;;;;;4994245;28;20027;-65
2023/10/13 11:53:35;;;;;;;22.60;5.95;;;22.50;99.90;;;;;;4990890;28;20030;-64
2023/10/13 11:56:01;;;;;;;16.10;5.30;;;22.60;99.90;;;;;;4973456;28;20031;-64
2023/10/13 11:58:28;;;;;;;19.25;6.18;;;22.60;99.90;;;;;;4991252;28;20034;-64
2023/10/13 12:01:07;;;;;;;12.50;5.60;;;22.40;99.90;;;;;;4991365;28;20014;-64
2023/10/13 12:06:22;;;;;;;12.40;5.93;;;22.70;99.90;;;;;;4990922;28;20025;-64
2023/10/13 12:08:51;;;;;;;12.30;5.47;;;23.00;99.90;;;;;;4973219;28;20030;-64
2023/10/13 12:11:33;;;;;;;12.83;5.30;;;23.00;99.90;;;;;;4973216;28;20030;-64
2023/10/13 12:14:11;;;;;;;14.45;5.90;;;23.10;99.90;;;;;;4990529;28;20024;-64
2023/10/13 12:16:36;;;;;;;16.60;6.53;;;22.90;99.90;;;;;;4990483;28;20308;-64
2023/10/13 12:19:02;;;;;;;13.35;5.93;;;23.20;99.90;;;;;;4990867;28;20026;-64
2023/10/13 12:21:29;;;;;;;13.35;5.63;;;23.30;99.90;;;;;;4990634;28;20524;-64
2023/10/13 12:23:55;;;;;;;15.65;5.18;;;23.30;99.90;;;;;;4990272;28;20118;-65
2023/10/13 12:26:21;;;;;;;21.90;6.22;;;23.30;99.90;;;;;;4990390;28;20463;-64
2023/10/13 12:28:53;;;;;;;19.27;5.93;;;23.70;99.90;;;;;;4990407;28;20092;-64
2023/10/13 12:31:26;;;;;;;13.70;5.68;;;24.10;99.90;;;;;;4990523;28;20054;-64
2023/10/13 12:33:52;;;;;;;16.98;6.15;;;24.30;99.90;;;;;;4990263;28;20033;-64
2023/10/13 12:52:25;;;;;;;19.15;6.20;;;24.90;99.90;;;;;;4990212;28;20026;-64
2023/10/13 12:57:25;;;;;;;15.43;6.55;;;24.80;99.90;;;;;;4990197;28;20034;-64
2023/10/13 12:59:53;;;;;;;16.73;6.20;;;24.50;99.90;;;;;;4990316;28;20112;-64
2023/10/13 13:02:24;;;;;;;17.08;6.57;;;23.90;99.90;;;;;;4989895;28;20018;-64
2023/10/13 13:04:54;;;;;;;16.48;7.07;;;23.60;99.90;;;;;;4989739;28;20069;-64
2023/10/13 13:07:20;;;;;;;14.43;6.50;;;23.40;99.90;;;;;;4989904;28;20030;-64
2023/10/13 13:09:45;;;;;;;16.88;6.40;;;23.20;99.90;;;;;;4989776;28;20269;-64
2023/10/13 13:12:14;;;;;;;20.90;6.97;;;23.00;99.90;;;;;;4986130;28;20076;-64
2023/10/13 13:14:46;;;;;;;22.75;6.55;;;22.90;99.90;;;;;;4981398;28;20023;-63
2023/10/13 13:17:12;;;;;;;18.92;7.75;;;23.00;99.90;;;;;;4984648;28;20584;-63
2023/10/13 13:19:41;;;;;;;15.77;7.15;;;22.90;99.90;;;;;;4981408;28;20089;-63
2023/10/13 13:22:11;;;;;;;15.10;6.70;;;22.80;99.90;;;;;;4983550;28;20018;-63
2023/10/13 13:24:43;;;;;;;17.73;6.43;;;23.20;99.90;;;;;;4983522;28;20018;-63
2023/10/13 13:27:13;;;;;;;16.10;7.03;;;23.30;99.90;;;;;;4986042;28;20031;-64
2023/10/13 13:29:40;;;;;;;14.68;6.78;;;23.40;99.90;;;;;;4986695;28;20571;-64
2023/10/13 13:32:07;;;;;;;19.15;8.18;;;23.30;99.90;;;;;;4972155;28;20038;-64
2023/10/13 13:34:33;;;;;;;17.10;6.72;;;23.30;99.90;;;;;;4990062;28;20053;-64
2023/10/13 13:37:00;;;;;;;21.25;6.68;;;23.10;99.90;;;;;;4972139;28;20034;-64
2023/10/13 13:39:29;;;;;;;16.70;6.25;;;23.00;99.90;;;;;;4984657;28;20033;-64
2023/10/13 13:41:56;;;;;;;18.15;6.75;;;22.90;99.90;;;;;;4989753;28;20102;-64
2023/10/13 13:44:35;;;;;;;20.27;6.60;;;22.80;99.90;;;;;;4972041;28;20042;-64
2023/10/13 13:47:11;;;;;;;18.73;7.13;;;22.70;99.90;;;;;;4989638;28;20483;-64
2023/10/13 13:49:39;;;;;;;21.27;7.10;;;22.60;99.90;;;;;;4985575;28;20051;-64
2023/10/13 13:52:09;;;;;;;19.67;6.63;;;22.60;99.90;;;;;;4989206;28;20069;-64
2023/10/13 13:54:35;;;;;;;14.20;6.65;;;22.70;99.90;;;;;;4989152;28;20517;-64
2023/10/13 13:57:01;;;;;;;19.48;7.07;;;23.00;99.90;;;;;;4971912;28;20035;-64
2023/10/13 13:59:26;;;;;;;18.35;6.97;;;23.20;99.90;;;;;;4989981;28;20440;-64
2023/10/13 14:01:52;;;;;;;18.88;6.65;;;23.50;99.90;;;;;;4989822;28;20050;-64
2023/10/13 14:04:18;;;;;;;19.08;6.57;;;23.50;99.90;;;;;;4986229;28;20386;-63
2023/10/13 14:06:44;;;;;;;18.73;6.55;;;23.70;99.90;;;;;;4992167;28;20101;-64
2023/10/13 14:09:14;;;;;;;17.95;6.75;;;23.80;99.90;;;;;;4993221;28;20037;-61
2023/10/13 14:16:51;;;;;;;21.05;6.72;;;23.20;99.90;;;;;;4989378;28;20427;-63
2023/10/13 14:19:29;;;;;;;16.88;7.88;;;23.00;99.90;;;;;;4975447;28;20324;-63
2023/10/13 14:21:56;;;;;;;16.33;7.00;;;22.80;99.90;;;;;;4975370;28;20023;-62
2023/10/13 14:24:28;;;;;;;14.73;6.68;;;22.70;99.90;;;;;;4992558;28;20030;-62
2023/10/13 14:27:07;;;;;;;20.98;7.15;;;22.70;99.90;;;;;;4993085;28;20391;-61
2023/10/13 14:29:33;;;;;;;19.08;7.28;;;22.60;99.90;;;;;;4992812;28;20486;-61
2023/10/13 14:31:59;;;;;;;22.08;7.00;;;22.60;99.90;;;;;;4974948;28;20113;-63
2023/10/13 14:34:26;;;;;;;16.38;6.78;;;22.80;99.90;;;;;;4992601;28;20018;-63
2023/10/13 14:36:51;;;;;;;18.98;6.63;;;23.00;99.90;;;;;;4992947;28;20026;-64
2023/10/13 14:39:20;;;;;;;15.05;6.05;;;23.10;99.90;;;;;;4992744;28;20092;-62
2023/10/13 14:41:47;;;;;;;23.30;7.30;;;23.00;99.90;;;;;;4992404;28;20053;-63
2023/10/13 14:44:13;;;;;;;17.17;7.35;;;23.10;99.90;;;;;;4991829;28;20467;-63
2023/10/13 14:46:39;;;;;;;15.40;6.35;;;23.20;99.90;;;;;;4985375;28;20026;-62
2023/10/13 14:49:06;;;;;;;15.90;7.03;;;23.20;99.90;;;;;;4991526;28;20022;-63
2023/10/13 14:51:31;;;;;;;19.55;6.68;;;23.20;99.90;;;;;;4992367;28;20454;-64
2023/10/13 14:53:59;;;;;;;16.55;6.72;;;23.10;99.90;;;;;;4991383;28;20027;-63
2023/10/13 14:56:26;;;;;;;26.27;6.85;;;23.10;99.90;;;;;;4984560;28;20038;-62
2023/10/13 14:58:53;;;;;;;15.85;6.15;;;22.90;99.90;;;;;;4990306;28;20022;-63
2023/10/13 15:01:21;;;;;;;22.00;6.68;;;22.90;99.90;;;;;;4990729;28;20031;-63
2023/10/13 15:03:54;;;;;;;16.23;7.03;;;22.80;99.90;;;;;;4989046;28;20024;-63
2023/10/13 15:06:25;;;;;;;18.92;7.43;;;22.70;99.90;;;;;;4986839;28;20514;-63
2023/10/13 15:08:51;;;;;;;17.45;6.72;;;22.60;99.90;;;;;;4990716;28;20042;-63
2023/10/13 15:11:20;;;;;;;16.77;8.02;;;22.60;99.90;;;;;;4987853;28;20447;-63
2023/10/13 15:13:50;;;;;;;20.95;6.32;;;22.50;99.90;;;;;;4983685;28;20027;-62
2023/10/13 15:16:34;;;;;;;19.95;8.05;;;22.50;99.90;;;;;;4991592;28;20026;-62
2023/10/13 15:19:00;;;;;;;17.77;7.25;;;22.40;99.90;;;;;;4991221;28;20030;-62
2023/10/13 15:21:36;;;;;;;16.27;7.07;;;22.40;99.90;;;;;;4991730;28;20026;-62
2023/10/13 15:24:15;;;;;;;16.95;6.55;;;22.30;99.90;;;;;;4991311;28;20036;-64
2023/10/13 15:26:47;;;;;;;20.63;7.57;;;22.20;99.90;;;;;;4991652;28;20296;-63
2023/10/13 15:29:17;;;;;;;17.05;7.45;;;22.10;99.90;;;;;;4991430;28;20042;-62
2023/10/13 15:32:04;;;;;;;19.13;7.20;;;22.10;99.90;;;;;;4991630;28;20030;-62
2023/10/13 15:34:31;;;;;;;13.68;7.18;;;22.00;99.90;;;;;;4990804;28;20037;-62
2023/10/13 15:36:58;;;;;;;21.92;7.30;;;21.90;99.90;;;;;;4991151;28;20250;-62
2023/10/13 15:39:28;;;;;;;19.52;7.78;;;21.90;99.90;;;;;;4991045;28;20045;-61
2023/10/13 15:41:55;;;;;;;18.20;7.60;;;21.80;99.90;;;;;;4991624;28;20661;-62
2023/10/13 15:44:24;;;;;;;19.23;8.10;;;21.80;99.90;;;;;;4991174;28;20022;-62
2023/10/13 15:46:52;;;;;;;18.33;7.60;;;21.80;99.90;;;;;;4991712;28;20046;-62
2023/10/13 15:49:18;;;;;;;16.83;7.32;;;21.70;99.90;;;;;;4991174;28;20443;-62
2023/10/13 15:51:44;;;;;;;18.05;6.93;;;21.70;99.90;;;;;;4990860;28;20022;-62
2023/10/13 15:54:16;;;;;;;15.40;7.57;;;21.70;99.90;;;;;;4991071;28;20041;-62
2023/10/13 15:56:45;;;;;;;18.75;7.72;;;21.70;99.90;;;;;;4990800;28;20034;-62
2023/10/13 15:59:11;;;;;;;22.90;7.38;;;21.70;99.90;;;;;;4991223;28;20465;-63
2023/10/13 16:01:39;;;;;;;19.15;7.88;;;21.70;99.90;;;;;;4991148;28;20030;-63
2023/10/13 16:04:11;;;;;;;16.70;7.53;;;21.70;99.90;;;;;;4973228;28;20030;-63
2023/10/13 16:06:40;;;;;;;24.23;8.30;;;21.60;99.90;;;;;;4990836;28;20032;-63
2023/10/13 16:09:13;;;;;;;22.30;7.57;;;21.60;99.90;;;;;;4990977;28;20050;-63
2023/10/13 16:11:42;;;;;;;19.75;6.93;;;21.60;99.90;;;;;;4991208;28;20146;-62
2023/10/13 16:14:10;;;;;;;17.45;6.95;;;21.60;99.90;;;;;;4990821;28;20538;-62